Time;durP1;ratioP1;P1;durP2;ratioP2;P2;SDS_P1;SDS_P2;PMS_P1;PMS_P2;Temp;Humidity;BMP_temperature;BMP_pressure;BME280_temperature;BME280_humidity;BME280_pressure;Samples;Min_cycle;Max_cycle;Signal;HPM_P1;HPM_P2
2023/09/04 00:00:27;;;;;;;3.73;3.43;;;17.20;99.90;;;;;;5033520;28;20186;-61
2023/09/04 00:02:53;;;;;;;4.23;3.30;;;17.10;99.90;;;;;;5033109;28;20193;-61
2023/09/04 00:05:18;;;;;;;4.77;3.33;;;17.00;99.90;;;;;;5027949;28;20196;-61
2023/09/04 00:07:45;;;;;;;4.33;3.80;;;17.10;99.90;;;;;;5018099;28;20216;-63
2023/09/04 00:10:11;;;;;;;5.10;4.28;;;17.00;99.90;;;;;;5030333;28;20552;-65
2023/09/04 00:12:36;;;;;;;3.92;3.50;;;16.90;99.90;;;;;;5028669;28;20566;-63
2023/09/04 00:15:03;;;;;;;4.37;3.97;;;17.20;99.90;;;;;;5033326;28;20192;-63
2023/09/04 00:17:30;;;;;;;4.60;3.75;;;17.10;99.90;;;;;;5036951;28;20297;-63
2023/09/04 00:19:55;;;;;;;5.65;3.80;;;17.00;99.90;;;;;;5027391;28;20210;-63
2023/09/04 00:22:22;;;;;;;4.13;3.73;;;17.20;99.90;;;;;;5033377;28;20579;-63
2023/09/04 00:24:47;;;;;;;3.80;3.50;;;16.90;99.90;;;;;;5029806;28;20178;-63
2023/09/04 00:27:13;;;;;;;4.07;3.70;;;17.10;99.90;;;;;;5027721;28;20835;-63
2023/09/04 00:29:39;;;;;;;7.60;3.43;;;17.00;99.90;;;;;;5033517;28;20200;-63
2023/09/04 00:32:06;;;;;;;5.40;3.13;;;16.90;99.90;;;;;;5030119;28;20182;-63
2023/09/04 00:34:32;;;;;;;4.15;3.75;;;16.90;99.90;;;;;;5030000;28;20709;-63
2023/09/04 00:36:58;;;;;;;5.35;3.25;;;17.00;99.90;;;;;;5032600;28;20992;-63
2023/09/04 00:39:24;;;;;;;3.92;3.53;;;16.70;99.90;;;;;;5028448;28;20186;-63
2023/09/04 00:41:50;;;;;;;4.37;3.70;;;16.60;99.90;;;;;;5025535;28;20182;-63
2023/09/04 00:44:16;;;;;;;3.80;3.50;;;16.90;99.90;;;;;;5030003;28;20182;-63
2023/09/04 00:46:43;;;;;;;4.70;4.20;;;16.80;99.90;;;;;;5031643;28;20186;-63
2023/09/04 00:49:11;;;;;;;3.95;3.45;;;16.70;99.90;;;;;;5029146;28;20198;-63
2023/09/04 00:51:38;;;;;;;3.70;3.35;;;16.60;99.90;;;;;;5034293;28;20274;-63
2023/09/04 00:54:04;;;;;;;7.43;3.80;;;16.70;99.90;;;;;;5032022;28;20204;-64
2023/09/04 00:56:30;;;;;;;4.35;3.70;;;16.60;99.90;;;;;;5033375;28;20190;-63
2023/09/04 00:58:56;;;;;;;4.18;3.30;;;16.50;99.90;;;;;;5028496;28;20215;-63
2023/09/04 01:01:22;;;;;;;4.15;3.85;;;16.50;99.90;;;;;;5031408;28;20298;-63
2023/09/04 01:03:48;;;;;;;5.40;4.00;;;16.60;99.90;;;;;;5029822;28;20178;-62
2023/09/04 01:06:14;;;;;;;4.50;4.10;;;16.70;99.90;;;;;;5029666;28;20187;-62
2023/09/04 01:08:40;;;;;;;4.00;3.25;;;16.70;99.90;;;;;;5033693;28;20205;-62
2023/09/04 01:11:10;;;;;;;4.33;3.70;;;16.50;99.90;;;;;;5032837;28;20192;-61
2023/09/04 01:13:46;;;;;;;4.40;4.00;;;16.40;99.90;;;;;;5017664;28;20240;-62
2023/09/04 01:16:13;;;;;;;5.05;3.63;;;16.60;99.90;;;;;;5031099;28;20579;-61
2023/09/04 01:18:39;;;;;;;4.47;3.47;;;16.60;99.90;;;;;;5036301;28;20568;-61
2023/09/04 01:21:05;;;;;;;3.60;3.30;;;16.60;99.90;;;;;;5029519;28;20261;-62
2023/09/04 01:23:32;;;;;;;4.07;3.75;;;16.40;99.90;;;;;;5024066;28;21148;-62
2023/09/04 01:26:20;;;;;;;6.00;3.78;;;16.60;99.90;;;;;;5029597;28;20187;-62
2023/09/04 01:29:13;;;;;;;3.33;3.03;;;16.50;99.90;;;;;;5032120;28;20209;-62
2023/09/04 01:31:49;;;;;;;3.63;3.33;;;16.60;99.90;;;;;;5036706;28;20244;-61
2023/09/04 01:34:31;;;;;;;4.45;3.70;;;16.40;99.90;;;;;;5029080;28;20665;-63
2023/09/04 01:36:57;;;;;;;4.13;3.83;;;16.40;99.90;;;;;;5034797;28;20192;-63
2023/09/04 01:39:25;;;;;;;4.22;3.80;;;16.30;99.90;;;;;;5032324;28;20182;-63
2023/09/04 01:41:51;;;;;;;4.00;3.47;;;16.40;99.90;;;;;;5025826;28;20191;-63
2023/09/04 01:44:16;;;;;;;3.67;3.37;;;16.40;99.90;;;;;;5032048;28;20195;-63
2023/09/04 01:46:42;;;;;;;4.00;3.70;;;16.40;99.90;;;;;;5032884;28;20187;-65
2023/09/04 01:49:08;;;;;;;7.50;4.30;;;16.10;99.90;;;;;;5028979;28;20603;-63
2023/09/04 01:51:33;;;;;;;5.47;4.00;;;16.40;99.90;;;;;;5025852;28;20455;-63
2023/09/04 01:53:59;;;;;;;3.80;3.50;;;16.30;99.90;;;;;;5032943;28;20515;-63
2023/09/04 01:56:25;;;;;;;5.00;3.60;;;16.50;99.90;;;;;;5035842;28;20339;-63
2023/09/04 01:58:50;;;;;;;4.20;3.40;;;16.40;99.90;;;;;;5029936;28;20265;-64
2023/09/04 02:01:16;;;;;;;4.97;3.50;;;16.30;99.90;;;;;;5032055;28;20190;-63
2023/09/04 02:03:55;;;;;;;3.97;3.67;;;16.50;99.90;;;;;;5027082;28;20194;-63
2023/09/04 02:06:27;;;;;;;4.00;3.70;;;16.40;99.90;;;;;;5018645;28;21010;-63
2023/09/04 02:08:53;;;;;;;4.28;3.38;;;16.10;99.90;;;;;;5030940;28;20214;-63
2023/09/04 02:11:18;;;;;;;4.60;3.67;;;16.10;99.90;;;;;;5029727;28;20194;-63
2023/09/04 02:13:47;;;;;;;4.30;3.90;;;16.50;99.90;;;;;;5035065;28;20241;-64
2023/09/04 02:16:13;;;;;;;4.32;3.47;;;16.60;99.90;;;;;;5032728;28;20182;-63
2023/09/04 02:18:39;;;;;;;4.00;3.70;;;16.30;99.90;;;;;;5030744;28;20201;-63
2023/09/04 02:21:05;;;;;;;4.50;3.67;;;16.20;99.90;;;;;;5031446;28;20680;-62
2023/09/04 02:23:31;;;;;;;4.00;3.70;;;16.20;99.90;;;;;;5031471;28;21044;-62
2023/09/04 02:25:57;;;;;;;4.40;4.03;;;16.20;99.90;;;;;;5030813;28;20275;-61
2023/09/04 02:28:22;;;;;;;5.87;3.47;;;16.10;99.90;;;;;;5027634;28;20206;-62
2023/09/04 02:30:48;;;;;;;3.90;3.60;;;16.10;99.90;;;;;;5033258;28;20188;-62
2023/09/04 02:33:14;;;;;;;4.10;3.70;;;16.30;99.90;;;;;;5031901;28;20245;-62
2023/09/04 02:35:39;;;;;;;4.20;3.80;;;16.20;99.90;;;;;;5029798;28;20189;-62
2023/09/04 02:38:05;;;;;;;3.90;3.60;;;16.30;99.90;;;;;;5026933;28;20748;-61
2023/09/04 02:40:30;;;;;;;4.93;3.20;;;16.10;99.90;;;;;;5027578;28;20206;-61
2023/09/04 02:42:56;;;;;;;5.47;3.93;;;16.20;99.90;;;;;;5025098;28;20190;-60
2023/09/04 02:45:22;;;;;;;4.40;4.00;;;16.00;99.90;;;;;;5032366;28;20616;-62
2023/09/04 02:47:47;;;;;;;6.20;3.43;;;16.00;99.90;;;;;;5029177;28;20234;-62
2023/09/04 02:50:13;;;;;;;3.60;3.30;;;16.00;99.90;;;;;;5031849;28;20211;-62
2023/09/04 02:52:39;;;;;;;4.60;4.20;;;16.00;99.90;;;;;;5036010;28;20209;-62
2023/09/04 02:55:06;;;;;;;4.10;3.73;;;16.10;99.90;;;;;;5026267;28;20553;-62
2023/09/04 02:57:32;;;;;;;4.05;3.65;;;16.00;99.90;;;;;;5031703;28;20201;-62
2023/09/04 03:00:06;;;;;;;4.80;3.80;;;15.90;99.90;;;;;;5024602;28;20190;-62
2023/09/04 03:02:33;;;;;;;4.43;3.40;;;15.80;99.90;;;;;;5034075;28;20185;-63
2023/09/04 03:04:59;;;;;;;4.80;4.38;;;16.00;99.90;;;;;;5025719;28;20182;-62
2023/09/04 03:07:28;;;;;;;4.30;3.53;;;15.80;99.90;;;;;;5033834;28;20717;-62
2023/09/04 03:09:58;;;;;;;4.45;3.72;;;15.90;99.90;;;;;;5030310;28;20190;-62
2023/09/04 03:12:25;;;;;;;4.13;3.38;;;15.80;99.90;;;;;;5034451;28;20182;-61
2023/09/04 03:14:58;;;;;;;3.92;3.50;;;15.90;99.90;;;;;;5030201;28;20563;-61
2023/09/04 03:17:25;;;;;;;4.80;3.65;;;15.80;99.90;;;;;;5035999;28;20206;-61
2023/09/04 03:19:52;;;;;;;6.55;4.10;;;15.80;99.90;;;;;;5028856;28;20190;-61
2023/09/04 03:22:18;;;;;;;3.60;3.30;;;16.00;99.90;;;;;;5029956;28;20182;-62
2023/09/04 03:24:44;;;;;;;3.60;3.30;;;15.90;99.90;;;;;;5031705;28;20553;-61
2023/09/04 03:27:09;;;;;;;4.67;4.07;;;15.60;99.90;;;;;;5028249;28;20297;-62
2023/09/04 03:29:35;;;;;;;4.83;4.43;;;15.60;99.90;;;;;;5031534;28;20447;-61
2023/09/04 03:32:00;;;;;;;7.10;4.20;;;15.50;99.90;;;;;;5033097;28;20220;-64
2023/09/04 03:34:29;;;;;;;4.87;3.53;;;15.70;99.90;;;;;;5027785;28;20405;-62
2023/09/04 03:36:55;;;;;;;3.80;3.50;;;15.80;99.90;;;;;;5027016;28;20656;-62
2023/09/04 03:39:21;;;;;;;4.37;4.00;;;15.60;99.90;;;;;;5029948;28;20222;-64
2023/09/04 03:41:46;;;;;;;5.20;3.95;;;15.80;99.90;;;;;;5029335;28;20209;-62
2023/09/04 03:44:12;;;;;;;4.90;3.80;;;15.70;99.90;;;;;;5031354;28;20193;-62
2023/09/04 03:46:37;;;;;;;5.67;4.10;;;15.70;99.90;;;;;;5038132;28;20173;-62
2023/09/04 03:49:04;;;;;;;4.10;3.70;;;15.50;99.90;;;;;;5033823;28;20216;-62
2023/09/04 03:51:29;;;;;;;4.18;3.78;;;15.40;99.90;;;;;;5033043;28;20202;-62
2023/09/04 03:53:55;;;;;;;4.27;3.80;;;15.60;99.90;;;;;;5034017;28;20245;-62
2023/09/04 03:56:21;;;;;;;5.80;3.90;;;15.50;99.90;;;;;;5028956;28;20206;-62
2023/09/04 03:58:46;;;;;;;4.67;4.20;;;15.50;99.90;;;;;;5030039;28;20311;-62
2023/09/04 04:01:12;;;;;;;4.67;3.83;;;15.40;99.90;;;;;;5023557;28;20780;-62
2023/09/04 04:03:37;;;;;;;4.40;4.00;;;15.80;99.90;;;;;;5031035;28;20189;-65
2023/09/04 04:06:15;;;;;;;4.70;4.30;;;15.50;99.90;;;;;;5029345;28;20182;-64
2023/09/04 04:08:41;;;;;;;4.32;3.92;;;15.40;99.90;;;;;;5028153;28;20284;-65
2023/09/04 04:11:06;;;;;;;5.43;4.33;;;15.60;99.90;;;;;;5032937;28;20273;-64
2023/09/04 04:13:32;;;;;;;4.87;4.37;;;15.50;99.90;;;;;;5026935;28;20209;-64
2023/09/04 04:15:59;;;;;;;5.90;4.67;;;15.40;99.90;;;;;;5035425;28;20494;-64
2023/09/04 04:18:28;;;;;;;4.30;3.92;;;15.50;99.90;;;;;;5030257;28;20280;-64
2023/09/04 04:20:54;;;;;;;4.05;3.65;;;15.50;99.90;;;;;;5029862;28;20557;-63
2023/09/04 04:23:19;;;;;;;4.13;3.73;;;15.50;99.90;;;;;;5034963;28;20189;-64
2023/09/04 04:25:45;;;;;;;4.37;3.97;;;15.20;99.90;;;;;;5025807;28;20186;-63
2023/09/04 04:28:11;;;;;;;5.20;4.03;;;15.00;99.90;;;;;;5023196;28;20699;-64
2023/09/04 04:30:36;;;;;;;4.20;3.90;;;15.10;99.90;;;;;;5026715;28;20203;-63
2023/09/04 04:33:02;;;;;;;4.23;3.90;;;15.30;99.90;;;;;;5025270;28;20284;-63
2023/09/04 04:35:28;;;;;;;4.27;3.87;;;15.20;99.90;;;;;;5027337;28;20658;-63
2023/09/04 04:37:53;;;;;;;4.87;4.20;;;14.80;99.90;;;;;;5029313;28;20464;-63
2023/09/04 04:40:21;;;;;;;4.10;3.70;;;15.50;99.90;;;;;;5026771;28;20201;-63
2023/09/04 04:42:46;;;;;;;3.72;3.42;;;15.10;99.90;;;;;;5034105;28;20182;-64
2023/09/04 04:45:12;;;;;;;4.37;3.97;;;15.50;99.90;;;;;;5024927;28;20236;-65
2023/09/04 04:47:37;;;;;;;4.27;3.50;;;15.40;99.90;;;;;;5022935;28;20217;-62
2023/09/04 04:50:03;;;;;;;4.80;4.30;;;15.20;99.90;;;;;;5014745;28;20188;-63
2023/09/04 04:52:29;;;;;;;5.82;4.25;;;15.30;99.90;;;;;;5029014;28;20191;-63
2023/09/04 04:54:55;;;;;;;4.67;3.63;;;15.30;99.90;;;;;;5028115;28;20660;-63
2023/09/04 04:57:22;;;;;;;4.90;4.50;;;15.30;99.90;;;;;;5025697;28;20682;-63
2023/09/04 04:59:48;;;;;;;4.57;4.18;;;15.10;99.90;;;;;;5029525;28;20188;-63
2023/09/04 05:02:16;;;;;;;4.93;4.23;;;15.10;99.90;;;;;;5030855;28;20182;-64
2023/09/04 05:04:45;;;;;;;6.50;3.80;;;15.10;99.90;;;;;;5030000;28;20174;-63
2023/09/04 05:07:11;;;;;;;4.57;4.18;;;15.20;99.90;;;;;;5030727;28;20193;-63
2023/09/04 05:09:37;;;;;;;5.43;4.45;;;15.10;99.90;;;;;;5035009;28;20189;-63
2023/09/04 05:12:03;;;;;;;5.03;4.57;;;15.20;99.90;;;;;;5025829;28;20535;-62
2023/09/04 05:14:29;;;;;;;5.28;4.78;;;15.20;99.90;;;;;;5030753;28;20289;-62
2023/09/04 05:16:55;;;;;;;4.63;4.13;;;15.30;99.90;;;;;;5028706;28;20193;-62
2023/09/04 05:19:21;;;;;;;4.00;3.60;;;15.30;99.90;;;;;;5026532;28;20181;-63
2023/09/04 05:21:47;;;;;;;5.47;4.40;;;15.20;99.90;;;;;;5035156;28;20228;-62
2023/09/04 05:24:13;;;;;;;8.23;5.27;;;15.00;99.90;;;;;;5032938;28;20186;-63
2023/09/04 05:26:39;;;;;;;5.00;4.40;;;15.30;99.90;;;;;;5033403;28;20196;-64
2023/09/04 05:29:05;;;;;;;4.87;4.30;;;15.10;99.90;;;;;;5026466;28;20210;-62
2023/09/04 05:31:31;;;;;;;5.43;4.83;;;15.00;99.90;;;;;;5025797;28;20874;-61
2023/09/04 05:33:56;;;;;;;4.97;4.47;;;15.30;99.90;;;;;;5018848;28;20210;-62
2023/09/04 05:36:22;;;;;;;7.37;4.83;;;15.40;99.90;;;;;;5025143;28;20190;-62
2023/09/04 05:38:47;;;;;;;5.57;4.43;;;15.30;99.90;;;;;;5024267;28;20206;-62
2023/09/04 05:41:14;;;;;;;4.27;3.87;;;15.40;99.90;;;;;;5025540;28;20206;-62
2023/09/04 05:43:40;;;;;;;4.82;4.43;;;15.60;99.90;;;;;;5028582;28;20633;-62
2023/09/04 05:46:06;;;;;;;4.50;4.10;;;15.40;99.90;;;;;;5012611;28;20178;-62
2023/09/04 05:48:33;;;;;;;4.87;4.43;;;15.50;99.90;;;;;;5029536;28;20451;-62
2023/09/04 05:51:00;;;;;;;7.18;5.60;;;15.50;99.90;;;;;;5032339;28;20452;-62
2023/09/04 05:53:26;;;;;;;4.82;4.30;;;15.80;99.90;;;;;;5035395;28;20559;-62
2023/09/04 05:56:05;;;;;;;5.30;4.60;;;15.70;99.90;;;;;;5035061;28;20177;-62
2023/09/04 05:58:31;;;;;;;4.80;4.40;;;15.50;99.90;;;;;;5031263;28;20861;-62
2023/09/04 06:00:56;;;;;;;7.50;5.70;;;15.70;99.90;;;;;;5039541;28;20353;-62
2023/09/04 06:03:23;;;;;;;5.70;4.77;;;16.00;99.90;;;;;;5037782;28;20640;-61
2023/09/04 06:05:48;;;;;;;4.72;4.28;;;15.80;99.90;;;;;;5034729;28;20572;-60
2023/09/04 06:08:15;;;;;;;4.53;4.13;;;16.10;99.90;;;;;;5034570;28;20202;-61
2023/09/04 06:10:41;;;;;;;6.88;4.68;;;16.00;99.90;;;;;;5033784;28;20190;-61
2023/09/04 06:13:06;;;;;;;5.77;4.63;;;16.10;99.90;;;;;;5036876;28;20479;-60
2023/09/04 06:15:32;;;;;;;5.30;4.80;;;16.20;99.90;;;;;;5033247;28;20180;-61
2023/09/04 06:17:57;;;;;;;5.97;5.10;;;16.40;99.90;;;;;;5032544;28;20560;-61
2023/09/04 06:20:23;;;;;;;6.20;4.80;;;16.60;99.90;;;;;;5033066;28;20190;-60
2023/09/04 06:22:49;;;;;;;5.87;5.37;;;16.30;99.90;;;;;;5031826;28;20243;-61
2023/09/04 06:25:14;;;;;;;6.73;5.77;;;16.60;99.90;;;;;;5037926;28;20587;-61
2023/09/04 06:27:40;;;;;;;6.00;5.50;;;16.60;99.90;;;;;;5034312;28;20486;-62
2023/09/04 06:30:06;;;;;;;5.80;5.30;;;16.60;99.90;;;;;;5031107;28;20187;-59
2023/09/04 06:32:32;;;;;;;6.28;5.60;;;16.90;99.90;;;;;;5036709;28;20299;-59
2023/09/04 06:34:58;;;;;;;8.27;5.95;;;17.20;99.90;;;;;;5028013;28;20225;-59
2023/09/04 06:37:25;;;;;;;5.80;5.20;;;17.10;99.90;;;;;;5036897;28;20201;-60
2023/09/04 06:39:50;;;;;;;6.57;5.40;;;17.30;99.90;;;;;;5031009;28;20703;-59
2023/09/04 06:42:16;;;;;;;8.20;6.40;;;17.50;99.90;;;;;;5037494;28;20244;-59
2023/09/04 06:44:41;;;;;;;6.60;6.00;;;17.50;99.90;;;;;;5032919;28;20650;-59
2023/09/04 06:47:07;;;;;;;6.90;6.30;;;17.80;99.90;;;;;;5028400;28;20202;-59
2023/09/04 06:49:32;;;;;;;6.10;5.60;;;17.60;99.90;;;;;;5029233;28;20185;-59
2023/09/04 06:51:58;;;;;;;8.00;6.40;;;17.70;99.90;;;;;;5032788;28;20289;-59
2023/09/04 06:54:24;;;;;;;7.00;6.30;;;17.80;99.90;;;;;;5029559;28;20214;-59
2023/09/04 06:56:50;;;;;;;9.23;6.10;;;17.70;99.90;;;;;;5032531;28;20269;-59
2023/09/04 06:59:15;;;;;;;11.80;5.93;;;17.80;99.90;;;;;;5040175;28;20221;-59
2023/09/04 07:01:41;;;;;;;6.63;5.93;;;18.20;99.90;;;;;;5030161;28;20190;-59
2023/09/04 07:04:07;;;;;;;7.17;5.57;;;19.30;99.90;;;;;;5030467;28;20745;-60
2023/09/04 07:06:32;;;;;;;5.70;5.17;;;22.30;99.90;;;;;;5030074;28;20201;-60
2023/09/04 07:08:58;;;;;;;7.20;5.30;;;25.20;99.90;;;;;;5023867;28;20646;-59
2023/09/04 07:11:24;;;;;;;5.27;4.87;;;28.00;94.00;;;;;;5030621;28;20597;-60
2023/09/04 07:13:49;;;;;;;5.23;4.73;;;29.50;88.70;;;;;;5022653;28;20267;-60
2023/09/04 07:16:15;;;;;;;5.97;5.37;;;30.50;80.10;;;;;;5030874;28;20224;-60
2023/09/04 07:18:41;;;;;;;5.30;4.80;;;32.80;73.40;;;;;;5029223;28;20221;-59
2023/09/04 07:21:06;;;;;;;4.43;4.10;;;31.40;73.50;;;;;;5026643;28;20190;-61
2023/09/04 07:23:32;;;;;;;5.87;4.97;;;34.00;67.80;;;;;;5031647;28;20738;-62
2023/09/04 07:25:57;;;;;;;4.97;4.57;;;36.00;61.10;;;;;;5027092;28;20217;-60
2023/09/04 07:28:23;;;;;;;5.93;4.20;;;35.00;58.90;;;;;;5021431;28;20249;-61
2023/09/04 07:30:49;;;;;;;4.40;3.90;;;36.70;56.60;;;;;;5025435;28;20659;-61
2023/09/04 07:33:14;;;;;;;4.63;4.13;;;38.30;52.90;;;;;;5030917;28;20217;-61
2023/09/04 07:35:40;;;;;;;4.60;4.20;;;38.60;50.80;;;;;;5026338;28;20726;-61
2023/09/04 07:38:06;;;;;;;4.40;4.00;;;39.90;48.40;;;;;;5030439;28;20205;-60
2023/09/04 07:40:33;;;;;;;6.03;4.60;;;39.80;45.90;;;;;;5027763;28;20535;-60
2023/09/04 07:42:59;;;;;;;4.47;4.07;;;39.10;45.00;;;;;;5033723;28;20229;-60
2023/09/04 07:45:25;;;;;;;4.70;4.30;;;38.90;45.30;;;;;;5026289;28;20882;-61
2023/09/04 07:47:51;;;;;;;4.90;4.40;;;39.50;44.20;;;;;;5026397;28;20838;-60
2023/09/04 07:50:17;;;;;;;4.40;4.00;;;39.80;42.60;;;;;;5032298;28;20193;-61
2023/09/04 07:52:42;;;;;;;4.30;3.93;;;38.70;42.70;;;;;;5022561;28;20691;-61
2023/09/04 07:55:09;;;;;;;4.43;4.10;;;39.10;41.70;;;;;;5025270;28;20445;-60
2023/09/04 07:57:35;;;;;;;4.03;3.73;;;40.10;41.30;;;;;;5028715;28;20209;-60
2023/09/04 08:00:01;;;;;;;4.23;3.53;;;39.00;41.20;;;;;;5034582;28;20534;-60
2023/09/04 08:02:26;;;;;;;3.63;3.43;;;38.60;40.20;;;;;;5031026;28;20570;-60
2023/09/04 08:04:52;;;;;;;3.73;3.53;;;36.30;42.40;;;;;;5030138;28;20191;-60
2023/09/04 08:07:18;;;;;;;4.80;3.83;;;35.20;44.60;;;;;;5032513;28;20212;-60
2023/09/04 08:09:43;;;;;;;3.67;3.47;;;35.50;45.40;;;;;;5028108;28;20746;-61
2023/09/04 08:12:09;;;;;;;4.13;3.80;;;35.50;45.10;;;;;;5016867;28;20520;-61
2023/09/04 08:14:36;;;;;;;4.00;3.70;;;36.50;44.00;;;;;;5029047;28;20229;-61
2023/09/04 08:17:05;;;;;;;3.67;3.33;;;37.30;43.60;;;;;;5031169;28;20189;-61
2023/09/04 08:19:30;;;;;;;3.47;3.27;;;37.90;42.90;;;;;;5021032;28;20460;-61
2023/09/04 08:21:59;;;;;;;4.40;4.00;;;36.90;42.60;;;;;;5033417;28;20433;-60
2023/09/04 08:24:25;;;;;;;3.57;3.27;;;36.20;43.60;;;;;;5031522;28;20189;-59
2023/09/04 08:26:50;;;;;;;4.37;4.07;;;35.20;45.30;;;;;;5028536;28;20452;-59
2023/09/04 08:29:16;;;;;;;4.60;4.20;;;33.80;47.00;;;;;;5030791;28;20304;-59
2023/09/04 08:31:42;;;;;;;3.63;3.40;;;33.40;48.00;;;;;;5033154;28;20190;-59
2023/09/04 08:34:07;;;;;;;3.57;3.37;;;33.30;48.70;;;;;;5032064;28;20288;-60
2023/09/04 08:36:33;;;;;;;7.30;6.80;;;34.30;48.00;;;;;;5031750;28;20847;-59
2023/09/04 08:38:58;;;;;;;3.83;3.53;;;36.00;46.00;;;;;;5031190;28;20293;-60
2023/09/04 08:41:27;;;;;;;4.60;4.20;;;35.60;45.80;;;;;;5031581;28;20189;-59
2023/09/04 08:43:53;;;;;;;4.40;4.00;;;33.80;47.80;;;;;;5031999;28;20359;-59
2023/09/04 08:46:19;;;;;;;5.60;3.60;;;33.10;49.00;;;;;;5028922;28;20934;-59
2023/09/04 08:48:46;;;;;;;3.80;3.50;;;32.60;50.10;;;;;;5027766;28;20217;-59
2023/09/04 08:51:12;;;;;;;4.20;3.90;;;32.00;51.10;;;;;;5024782;28;20497;-59
2023/09/04 08:53:38;;;;;;;4.50;4.10;;;31.70;52.30;;;;;;5026363;28;20764;-59
2023/09/04 08:56:04;;;;;;;4.37;4.07;;;31.10;52.60;;;;;;5034496;28;20602;-59
2023/09/04 08:58:30;;;;;;;6.27;4.70;;;30.60;53.50;;;;;;5030437;28;20470;-58
2023/09/04 09:00:56;;;;;;;4.17;3.87;;;30.10;55.30;;;;;;5026713;28;20533;-59
2023/09/04 09:03:22;;;;;;;4.33;4.03;;;29.50;56.80;;;;;;5036087;28;20197;-59
2023/09/04 09:05:48;;;;;;;4.83;4.00;;;28.80;58.00;;;;;;5027757;28;20460;-59
2023/09/04 09:08:16;;;;;;;4.37;4.07;;;28.30;58.60;;;;;;5020349;28;20219;-59
2023/09/04 09:10:45;;;;;;;4.20;3.90;;;27.90;59.50;;;;;;5022705;28;20449;-60
2023/09/04 09:13:14;;;;;;;4.83;4.50;;;27.50;61.20;;;;;;5030609;28;20502;-61
2023/09/04 09:15:42;;;;;;;4.47;4.17;;;27.10;61.80;;;;;;5025093;28;20808;-59
2023/09/04 09:18:08;;;;;;;4.00;3.70;;;26.90;64.20;;;;;;5028999;28;20453;-59
2023/09/04 09:20:35;;;;;;;3.33;3.13;;;26.50;64.70;;;;;;5030953;28;20588;-60
2023/09/04 09:23:05;;;;;;;3.90;3.60;;;26.30;64.80;;;;;;5033238;28;20459;-59
2023/09/04 09:25:31;;;;;;;3.90;3.60;;;26.10;65.90;;;;;;5030496;28;20466;-60
2023/09/04 09:28:02;;;;;;;4.90;4.57;;;25.90;66.40;;;;;;5044572;28;20841;-59
2023/09/04 09:30:36;;;;;;;4.20;3.90;;;25.90;68.50;;;;;;5036263;28;20444;-59
2023/09/04 09:33:12;;;;;;;4.40;4.00;;;25.80;68.60;;;;;;5032679;28;20482;-59
2023/09/04 09:35:40;;;;;;;4.50;4.20;;;26.00;67.40;;;;;;5033518;28;20431;-60
2023/09/04 09:38:05;;;;;;;5.80;4.13;;;26.20;68.10;;;;;;5037774;28;20455;-59
2023/09/04 09:40:31;;;;;;;4.63;4.23;;;26.30;67.90;;;;;;5031357;28;20534;-59
2023/09/04 09:43:00;;;;;;;4.30;4.00;;;26.30;68.20;;;;;;5046547;28;20218;-59
2023/09/04 09:45:33;;;;;;;4.20;3.90;;;26.10;68.70;;;;;;5034979;28;20697;-58
2023/09/04 09:48:06;;;;;;;4.47;4.17;;;26.10;68.70;;;;;;5028970;28;20461;-60
2023/09/04 09:50:32;;;;;;;4.10;3.80;;;26.00;69.60;;;;;;5031239;28;20525;-59
2023/09/04 09:52:58;;;;;;;4.53;4.23;;;26.00;70.50;;;;;;5035467;28;20535;-59
2023/09/04 09:55:25;;;;;;;4.00;3.70;;;25.90;70.20;;;;;;5032305;28;20464;-59
2023/09/04 09:57:53;;;;;;;4.33;3.93;;;25.90;69.80;;;;;;5034597;28;20469;-59
2023/09/04 10:00:19;;;;;;;3.70;3.50;;;25.90;67.50;;;;;;5032452;28;20472;-59
2023/09/04 10:02:45;;;;;;;4.13;3.83;;;25.90;67.50;;;;;;5025739;28;20436;-59
2023/09/04 10:05:11;;;;;;;3.80;3.50;;;25.90;68.10;;;;;;5028156;28;20273;-59
2023/09/04 10:07:38;;;;;;;4.90;4.50;;;26.00;67.90;;;;;;5032729;28;20547;-59
2023/09/04 10:10:06;;;;;;;4.53;3.70;;;26.00;67.50;;;;;;5030048;28;21007;-59
2023/09/04 10:12:54;;;;;;;6.80;4.33;;;26.00;67.00;;;;;;5029918;28;20521;-58
2023/09/04 10:15:25;;;;;;;4.00;3.70;;;26.00;66.20;;;;;;5037128;28;20451;-58
2023/09/04 10:17:55;;;;;;;4.00;3.70;;;26.00;65.70;;;;;;5033074;28;20499;-60
2023/09/04 10:20:22;;;;;;;3.43;3.20;;;26.10;65.70;;;;;;5030799;28;20888;-60
2023/09/04 10:23:01;;;;;;;3.73;3.53;;;26.00;64.10;;;;;;5031221;28;20446;-59
2023/09/04 10:25:41;;;;;;;7.63;4.00;;;26.00;66.10;;;;;;5032370;28;20503;-59
2023/09/04 10:28:21;;;;;;;4.03;3.73;;;25.90;65.80;;;;;;5033921;28;20464;-60
2023/09/04 10:30:52;;;;;;;3.77;3.57;;;25.90;67.00;;;;;;5030940;28;20439;-59
2023/09/04 10:33:19;;;;;;;5.33;4.83;;;26.00;66.80;;;;;;5040304;28;20843;-60
2023/09/04 10:35:44;;;;;;;5.00;4.60;;;26.10;67.40;;;;;;5033759;28;20447;-59
2023/09/04 10:38:10;;;;;;;4.03;3.60;;;26.10;67.70;;;;;;5036912;28;21022;-59
2023/09/04 10:40:38;;;;;;;4.20;3.90;;;26.20;63.80;;;;;;5033564;28;20185;-58
2023/09/04 10:43:04;;;;;;;4.20;3.90;;;26.20;62.60;;;;;;5033829;28;20432;-59
2023/09/04 10:45:31;;;;;;;3.90;3.70;;;26.20;63.30;;;;;;5041678;28;20442;-59
2023/09/04 10:47:57;;;;;;;3.60;3.30;;;26.20;62.30;;;;;;5030024;28;20478;-59
2023/09/04 10:50:37;;;;;;;3.80;3.53;;;26.20;60.60;;;;;;5030608;28;20447;-59
2023/09/04 10:53:07;;;;;;;3.70;3.33;;;26.30;60.60;;;;;;5035868;28;20200;-60
2023/09/04 10:55:37;;;;;;;3.57;3.37;;;26.30;62.10;;;;;;5032629;28;20814;-60
2023/09/04 10:58:07;;;;;;;3.60;3.30;;;26.40;62.50;;;;;;5034922;28;20547;-60
2023/09/04 11:00:34;;;;;;;3.70;3.40;;;26.50;59.10;;;;;;5032463;28;20576;-59
2023/09/04 11:03:20;;;;;;;3.33;3.13;;;26.60;59.90;;;;;;5033789;28;20428;-60
2023/09/04 11:06:05;;;;;;;3.10;2.87;;;26.90;58.60;;;;;;5035334;28;20501;-59
2023/09/04 11:08:32;;;;;;;3.30;3.10;;;27.20;58.40;;;;;;5034028;28;20969;-60
2023/09/04 11:11:08;;;;;;;3.77;3.47;;;27.30;55.70;;;;;;5032736;28;20449;-59
2023/09/04 11:13:40;;;;;;;4.90;3.20;;;27.30;55.20;;;;;;5031963;28;20478;-59
2023/09/04 11:16:07;;;;;;;3.60;3.40;;;27.20;56.90;;;;;;5033614;28;21045;-58
2023/09/04 11:18:35;;;;;;;3.80;3.50;;;27.20;57.00;;;;;;5035214;28;20511;-59
2023/09/04 11:21:01;;;;;;;3.40;3.10;;;27.30;55.90;;;;;;5034570;28;20980;-59
2023/09/04 11:23:28;;;;;;;5.20;3.60;;;27.30;55.40;;;;;;5037612;28;20453;-59
2023/09/04 11:25:54;;;;;;;3.67;3.37;;;27.30;55.50;;;;;;5028872;28;20452;-59
2023/09/04 11:28:23;;;;;;;3.50;3.20;;;27.50;55.30;;;;;;5031395;28;20462;-59
2023/09/04 11:30:53;;;;;;;4.27;3.53;;;27.50;55.10;;;;;;5035298;28;20915;-59
2023/09/04 11:33:22;;;;;;;3.53;3.30;;;27.60;56.20;;;;;;5035396;28;20484;-58
2023/09/04 11:35:57;;;;;;;4.40;4.10;;;27.60;56.10;;;;;;5029652;28;20450;-59
2023/09/04 11:38:28;;;;;;;4.20;3.80;;;27.70;55.50;;;;;;5033323;28;20958;-59
2023/09/04 11:40:54;;;;;;;3.53;3.33;;;27.60;53.30;;;;;;5032743;28;20449;-59
2023/09/04 11:43:25;;;;;;;3.07;2.87;;;27.50;52.20;;;;;;5030261;28;20469;-59
2023/09/04 11:45:57;;;;;;;3.30;3.10;;;27.50;54.50;;;;;;5027957;28;20883;-60
2023/09/04 11:48:24;;;;;;;3.60;3.30;;;27.50;54.10;;;;;;5034275;28;20475;-59
2023/09/04 11:50:50;;;;;;;3.57;3.27;;;27.50;53.10;;;;;;5031258;28;20461;-60
2023/09/04 11:53:16;;;;;;;3.27;3.07;;;27.50;53.00;;;;;;5028017;28;20506;-60
2023/09/04 11:55:42;;;;;;;3.27;3.03;;;27.70;53.60;;;;;;5029457;28;20537;-60
2023/09/04 11:58:08;;;;;;;3.43;3.13;;;28.10;53.40;;;;;;5032330;28;20464;-60
2023/09/04 12:00:34;;;;;;;3.23;3.03;;;28.40;52.30;;;;;;5033397;28;20188;-60
2023/09/04 12:03:00;;;;;;;2.93;2.73;;;28.70;52.00;;;;;;5031258;28;21024;-60
2023/09/04 12:05:25;;;;;;;3.60;3.30;;;28.80;50.60;;;;;;5028362;28;20201;-60
2023/09/04 12:07:51;;;;;;;3.10;2.90;;;28.90;50.60;;;;;;5027699;28;20253;-60
2023/09/04 12:10:17;;;;;;;3.40;2.97;;;29.10;48.90;;;;;;5026416;28;20193;-60
2023/09/04 12:12:43;;;;;;;3.33;2.90;;;29.00;48.00;;;;;;5026187;28;20189;-60
2023/09/04 12:15:09;;;;;;;3.30;3.10;;;28.70;47.60;;;;;;5029515;28;20311;-60
2023/09/04 12:17:35;;;;;;;3.30;2.90;;;28.50;48.50;;;;;;5026157;28;20540;-60
2023/09/04 12:20:10;;;;;;;3.90;2.97;;;28.40;48.40;;;;;;5023206;28;20522;-60
2023/09/04 12:22:36;;;;;;;3.33;3.13;;;28.40;49.50;;;;;;5023513;28;20189;-62
2023/09/04 12:25:11;;;;;;;3.43;3.10;;;28.30;49.80;;;;;;5028801;28;20443;-61
2023/09/04 12:27:41;;;;;;;3.77;3.47;;;28.40;49.40;;;;;;5033828;28;20237;-62
2023/09/04 12:30:09;;;;;;;4.17;3.77;;;28.50;48.70;;;;;;5029345;28;20449;-62
2023/09/04 12:32:36;;;;;;;3.10;2.90;;;28.50;48.80;;;;;;5029645;28;20440;-62
2023/09/04 12:35:04;;;;;;;3.50;3.20;;;28.40;48.70;;;;;;5019965;28;20529;-61
2023/09/04 12:37:36;;;;;;;2.97;2.63;;;28.30;47.20;;;;;;5029482;28;20547;-62
2023/09/04 12:40:03;;;;;;;3.30;3.10;;;28.30;48.70;;;;;;5028406;28;20444;-62
2023/09/04 12:42:28;;;;;;;3.43;3.13;;;28.30;49.30;;;;;;5026779;28;20448;-62
2023/09/04 12:44:54;;;;;;;3.40;3.10;;;28.30;46.10;;;;;;5027880;28;21078;-61
2023/09/04 12:47:21;;;;;;;3.50;3.20;;;28.10;44.80;;;;;;5026492;28;20219;-62